Time;durP1;ratioP1;P1;durP2;ratioP2;P2;SDS_P1;SDS_P2;PMS_P1;PMS_P2;Temp;Humidity;BMP_temperature;BMP_pressure;BME280_temperature;BME280_humidity;BME280_pressure;Samples;Min_cycle;Max_cycle;Signal;HPM_P1;HPM_P2
2021/12/15 00:01:52;;;;;;;60.15;53.08;;;5.10;99.90;;;;;;4994878;28;20038;-84
2021/12/15 00:04:18;;;;;;;62.60;51.50;;;5.10;99.90;;;;;;4995106;28;20026;-84
2021/12/15 00:06:45;;;;;;;70.90;50.90;;;5.10;99.90;;;;;;4994175;28;20041;-83
2021/12/15 00:09:13;;;;;;;66.60;51.22;;;5.10;99.90;;;;;;5001963;28;20049;-83
2021/12/15 00:11:40;;;;;;;58.55;49.35;;;5.00;99.90;;;;;;4994674;28;20041;-83
2021/12/15 00:14:10;;;;;;;68.50;48.65;;;5.00;99.90;;;;;;5004521;28;20030;-83
2021/12/15 00:16:36;;;;;;;63.63;49.83;;;4.90;99.90;;;;;;4994618;28;20031;-83
2021/12/15 00:19:04;;;;;;;55.47;46.95;;;4.80;99.90;;;;;;4993914;28;20506;-83
2021/12/15 00:21:30;;;;;;;55.17;47.78;;;4.80;99.90;;;;;;4994703;28;20038;-83
2021/12/15 00:23:57;;;;;;;66.88;48.65;;;4.70;99.90;;;;;;4994631;28;20033;-83
2021/12/15 00:26:23;;;;;;;62.05;50.25;;;4.70;99.90;;;;;;4994306;28;20131;-80
2021/12/15 00:28:50;;;;;;;56.00;46.92;;;4.60;99.90;;;;;;4991685;28;20037;-83
2021/12/15 00:31:17;;;;;;;68.90;49.22;;;4.60;99.90;;;;;;5004215;28;20483;-83
2021/12/15 00:33:45;;;;;;;73.57;50.35;;;4.60;99.90;;;;;;4989669;28;20042;-83
2021/12/15 00:36:13;;;;;;;62.65;50.28;;;4.60;99.90;;;;;;4988964;28;20034;-81
2021/12/15 00:38:40;;;;;;;65.00;49.78;;;4.50;99.90;;;;;;4994047;28;20027;-82
2021/12/15 00:41:08;;;;;;;56.40;49.85;;;4.50;99.90;;;;;;4994959;28;20042;-82
2021/12/15 00:43:35;;;;;;;69.93;52.42;;;4.40;99.90;;;;;;4994364;28;20379;-82
2021/12/15 00:46:02;;;;;;;64.60;51.03;;;4.50;99.90;;;;;;4996294;28;20103;-82
2021/12/15 00:48:28;;;;;;;69.70;52.63;;;4.50;99.90;;;;;;4994634;28;20391;-82
2021/12/15 00:50:55;;;;;;;77.82;54.95;;;4.40;99.90;;;;;;4994303;28;20041;-83
2021/12/15 00:53:22;;;;;;;61.70;51.47;;;4.40;99.90;;;;;;4994298;28;20035;-82
2021/12/15 00:55:48;;;;;;;59.10;49.92;;;4.30;99.90;;;;;;4993458;28;20361;-83
2021/12/15 00:58:15;;;;;;;68.80;52.17;;;4.20;99.90;;;;;;5003053;28;20049;-83
2021/12/15 01:00:56;;;;;;;64.97;51.38;;;4.20;99.90;;;;;;4982281;28;20058;-82
2021/12/15 01:03:23;;;;;;;61.63;49.42;;;4.20;99.90;;;;;;4993313;28;20042;-83
2021/12/15 01:05:52;;;;;;;72.78;52.60;;;4.20;99.90;;;;;;4993230;28;20039;-83
2021/12/15 01:08:24;;;;;;;67.00;55.28;;;4.30;99.90;;;;;;4992615;28;20026;-83
2021/12/15 01:21:55;;;;;;;68.53;49.42;;;4.20;99.90;;;;;;4975541;28;20057;-82
2021/12/15 01:24:22;;;;;;;58.78;47.83;;;4.20;99.90;;;;;;4992925;28;20030;-82
2021/12/15 01:26:48;;;;;;;63.25;50.42;;;4.10;99.90;;;;;;4991816;28;20046;-82
2021/12/15 01:29:15;;;;;;;53.70;46.70;;;4.10;99.90;;;;;;4975541;28;20045;-83
2021/12/15 01:31:41;;;;;;;54.95;44.67;;;4.00;99.90;;;;;;4992508;28;20026;-79
2021/12/15 01:34:07;;;;;;;61.47;45.65;;;4.00;99.90;;;;;;4992943;28;20037;-83
2021/12/15 01:36:34;;;;;;;56.10;47.55;;;3.90;99.90;;;;;;4992305;28;20034;-82
2021/12/15 01:39:00;;;;;;;53.97;46.88;;;4.00;99.90;;;;;;5008334;28;20029;-81
2021/12/15 01:41:26;;;;;;;57.75;44.60;;;3.90;99.90;;;;;;5001699;28;20046;-78
2021/12/15 01:49:24;;;;;;;65.90;47.33;;;3.80;99.90;;;;;;4993192;28;20038;-82
2021/12/15 01:51:50;;;;;;;54.08;43.80;;;3.70;99.90;;;;;;4958596;28;20039;-82
2021/12/15 01:54:18;;;;;;;54.58;44.50;;;3.70;99.90;;;;;;4992876;28;20379;-83
2021/12/15 01:56:44;;;;;;;58.92;44.00;;;3.70;99.90;;;;;;4991943;28;20045;-82
2021/12/15 01:59:13;;;;;;;55.10;43.03;;;3.60;99.90;;;;;;4989275;28;20399;-82
2021/12/15 02:01:40;;;;;;;52.88;42.90;;;3.60;99.90;;;;;;5002717;28;20046;-82
2021/12/15 02:04:07;;;;;;;52.33;43.05;;;3.50;99.90;;;;;;4992235;28;20027;-83
2021/12/15 02:06:34;;;;;;;51.65;42.25;;;3.50;99.90;;;;;;4991889;28;20391;-83
2021/12/15 02:09:01;;;;;;;47.35;42.03;;;3.40;99.90;;;;;;4992740;28;20037;-83
2021/12/15 02:11:27;;;;;;;45.88;40.83;;;3.30;99.90;;;;;;4992386;28;20038;-79
2021/12/15 02:13:54;;;;;;;47.85;41.65;;;3.30;99.90;;;;;;4991762;28;20057;-83
2021/12/15 02:16:20;;;;;;;46.17;38.53;;;3.30;99.90;;;;;;4992529;28;20061;-82
2021/12/15 02:18:47;;;;;;;44.58;37.92;;;3.20;99.90;;;;;;5007264;28;20026;-83
2021/12/15 02:21:19;;;;;;;51.22;39.47;;;3.10;99.90;;;;;;4987805;28;20046;-82
2021/12/15 02:23:51;;;;;;;48.22;38.95;;;3.10;99.90;;;;;;4992114;28;20046;-82
2021/12/15 02:26:26;;;;;;;54.83;40.42;;;3.10;99.90;;;;;;4996027;28;20034;-82
2021/12/15 02:28:57;;;;;;;43.97;38.83;;;3.00;99.90;;;;;;4993431;28;20053;-82
2021/12/15 02:34:31;;;;;;;37.95;34.00;;;2.90;99.90;;;;;;4996559;28;20034;-82
2021/12/15 02:37:18;;;;;;;40.70;36.30;;;2.80;99.90;;;;;;4982309;28;20122;-82
2021/12/15 02:39:51;;;;;;;41.92;37.00;;;2.70;99.90;;;;;;4994672;28;20394;-82
2021/12/15 02:42:19;;;;;;;44.90;37.75;;;2.80;99.90;;;;;;5005303;28;20038;-82
2021/12/15 02:44:46;;;;;;;45.00;37.75;;;2.70;99.90;;;;;;4995409;28;20037;-82
2021/12/15 02:47:18;;;;;;;51.08;36.25;;;2.60;99.90;;;;;;4996036;28;20041;-80
2021/12/15 02:49:46;;;;;;;46.22;38.90;;;2.60;99.90;;;;;;4996007;28;20034;-80
2021/12/15 02:52:12;;;;;;;42.45;37.72;;;2.70;99.90;;;;;;4997619;28;20034;-83
2021/12/15 02:54:39;;;;;;;43.53;36.60;;;2.60;99.90;;;;;;4995782;28;20035;-83
2021/12/15 02:57:10;;;;;;;55.13;40.50;;;2.50;99.90;;;;;;4994794;28;20038;-83
2021/12/15 03:07:33;;;;;;;54.85;42.63;;;2.60;99.90;;;;;;4995616;28;20034;-80
2021/12/15 03:15:33;;;;;;;47.88;42.70;;;2.50;99.90;;;;;;4995489;28;20049;-76
2021/12/15 03:18:02;;;;;;;56.33;44.13;;;2.50;99.90;;;;;;5008650;28;20037;-82
2021/12/15 03:20:35;;;;;;;50.65;42.92;;;2.50;99.90;;;;;;4995209;28;20902;-79
2021/12/15 03:23:05;;;;;;;48.20;41.85;;;2.50;99.90;;;;;;4995217;28;20046;-80
2021/12/15 03:25:32;;;;;;;51.83;41.70;;;2.40;99.90;;;;;;4994551;28;20049;-77
2021/12/15 03:34:40;;;;;;;46.20;41.28;;;2.40;99.90;;;;;;4994228;28;20042;-76
2021/12/15 03:36:53;;;;;;;49.20;41.55;;;2.30;99.90;;;;;;4986171;28;20046;-81
2021/12/15 03:39:20;;;;;;;47.75;40.50;;;2.30;99.90;;;;;;4994865;28;20038;-81
2021/12/15 03:41:56;;;;;;;45.63;40.50;;;2.30;99.90;;;;;;4977906;28;20038;-81
2021/12/15 03:44:22;;;;;;;47.58;41.85;;;2.30;99.90;;;;;;4994850;28;20038;-81
2021/12/15 03:46:50;;;;;;;50.33;39.42;;;2.40;99.90;;;;;;4994581;28;20221;-81
2021/12/15 03:49:16;;;;;;;48.47;41.53;;;2.30;99.90;;;;;;4994812;28;20030;-81
2021/12/15 03:51:43;;;;;;;46.17;39.78;;;2.30;99.90;;;;;;5005453;28;20030;-81
2021/12/15 03:54:10;;;;;;;48.83;41.92;;;2.30;99.90;;;;;;4995498;28;20026;-81
2021/12/15 03:56:39;;;;;;;47.25;39.67;;;2.40;99.90;;;;;;4993083;28;20046;-80
2021/12/15 03:59:06;;;;;;;56.78;41.38;;;2.40;99.90;;;;;;4993363;28;20041;-80
2021/12/15 04:01:34;;;;;;;53.38;41.50;;;2.40;99.90;;;;;;4999104;28;20034;-77
2021/12/15 04:04:01;;;;;;;56.33;43.60;;;2.30;99.90;;;;;;4994696;28;20027;-80
2021/12/15 04:06:34;;;;;;;58.42;45.15;;;2.30;99.90;;;;;;4994622;28;20482;-80
2021/12/15 04:09:02;;;;;;;65.07;45.80;;;2.40;99.90;;;;;;4993676;28;20038;-81
2021/12/15 04:11:33;;;;;;;55.63;43.33;;;2.30;99.90;;;;;;5003213;28;20050;-81
2021/12/15 04:14:02;;;;;;;52.42;44.03;;;2.40;99.90;;;;;;4994007;28;20038;-81
2021/12/15 04:18:58;;;;;;;48.55;42.67;;;2.40;99.90;;;;;;5005601;28;20031;-82
2021/12/15 04:21:24;;;;;;;54.83;44.33;;;2.40;99.90;;;;;;4993891;28;20042;-79
2021/12/15 04:23:54;;;;;;;48.55;39.05;;;2.30;99.90;;;;;;4993926;28;20030;-82
2021/12/15 04:26:20;;;;;;;64.47;41.55;;;2.30;99.90;;;;;;5007892;28;20029;-81
2021/12/15 04:28:47;;;;;;;50.78;40.97;;;2.20;99.90;;;;;;5000801;28;20041;-81
2021/12/15 04:31:17;;;;;;;49.85;39.60;;;2.20;99.90;;;;;;4993946;28;20026;-80
2021/12/15 04:33:51;;;;;;;47.42;42.28;;;2.20;99.90;;;;;;5003829;28;20026;-81
2021/12/15 04:36:17;;;;;;;50.92;41.80;;;2.30;99.90;;;;;;4995845;28;20479;-81
2021/12/15 04:38:44;;;;;;;69.45;50.58;;;2.30;99.90;;;;;;4994908;28;20046;-81
2021/12/15 04:41:16;;;;;;;64.35;53.08;;;2.30;99.90;;;;;;4994172;28;20045;-80
2021/12/15 04:43:44;;;;;;;64.07;51.50;;;2.30;99.90;;;;;;4993596;28;20038;-81
2021/12/15 04:46:12;;;;;;;71.28;56.10;;;2.40;99.90;;;;;;4986781;28;20043;-81
2021/12/15 04:48:40;;;;;;;74.65;55.45;;;2.40;99.90;;;;;;4993394;28;20030;-81
2021/12/15 04:51:07;;;;;;;105.38;60.08;;;2.40;99.90;;;;;;4993426;28;20045;-82
2021/12/15 04:53:36;;;;;;;103.63;54.42;;;2.40;99.90;;;;;;4996020;28;20360;-80
2021/12/15 04:56:03;;;;;;;84.22;55.65;;;2.30;99.90;;;;;;4992710;28;20033;-81
2021/12/15 04:58:29;;;;;;;116.00;53.70;;;2.30;99.90;;;;;;4993579;28;20041;-81
2021/12/15 05:01:00;;;;;;;109.40;53.90;;;2.40;99.90;;;;;;4992607;28;20038;-81
2021/12/15 05:03:27;;;;;;;102.65;51.80;;;2.40;99.90;;;;;;4993671;28;20491;-81
2021/12/15 05:05:53;;;;;;;88.68;49.22;;;2.40;99.90;;;;;;4993022;28;20596;-80
2021/12/15 05:08:20;;;;;;;82.00;51.95;;;2.40;99.90;;;;;;4993542;28;20041;-86
2021/12/15 05:10:47;;;;;;;83.15;52.38;;;2.40;99.90;;;;;;4991695;28;20046;-78
2021/12/15 05:13:13;;;;;;;123.07;58.63;;;2.40;99.90;;;;;;5005787;28;20030;-83
2021/12/15 05:15:40;;;;;;;102.63;55.78;;;2.40;99.90;;;;;;4992952;28;20045;-83
2021/12/15 05:18:07;;;;;;;132.98;56.72;;;2.40;99.90;;;;;;4993059;28;20038;-83
2021/12/15 05:20:37;;;;;;;104.75;55.58;;;2.50;99.90;;;;;;5004852;28;20038;-78
2021/12/15 05:23:03;;;;;;;103.15;52.60;;;2.50;99.90;;;;;;5011545;28;20229;-85
2021/12/15 05:25:30;;;;;;;84.70;52.95;;;2.50;99.90;;;;;;5002701;28;20049;-86
2021/12/15 05:27:57;;;;;;;71.10;51.72;;;2.50;99.90;;;;;;5001795;28;20046;-85
2021/12/15 05:30:24;;;;;;;51.00;45.28;;;2.50;99.90;;;;;;4995059;28;20057;-84
2021/12/15 05:32:50;;;;;;;58.88;47.97;;;2.50;99.90;;;;;;5000013;28;20026;-85
2021/12/15 05:35:22;;;;;;;61.65;48.13;;;2.60;99.90;;;;;;4994869;28;20034;-84
2021/12/15 05:37:56;;;;;;;50.47;42.55;;;2.60;99.90;;;;;;4997446;28;20054;-85
2021/12/15 05:40:22;;;;;;;49.72;44.58;;;2.60;99.90;;;;;;4993526;28;20039;-85
2021/12/15 05:42:49;;;;;;;48.03;42.97;;;2.60;99.90;;;;;;4992866;28;20046;-85
2021/12/15 05:45:15;;;;;;;55.70;46.35;;;2.60;99.90;;;;;;4993530;28;20034;-85
2021/12/15 05:47:42;;;;;;;57.90;44.90;;;2.60;99.90;;;;;;4993138;28;20041;-85
2021/12/15 05:50:11;;;;;;;56.42;50.53;;;2.60;99.90;;;;;;4993398;28;20034;-84
2021/12/15 05:52:38;;;;;;;60.10;50.05;;;2.60;99.90;;;;;;4992593;28;20057;-84
2021/12/15 05:55:10;;;;;;;59.45;51.55;;;2.60;99.90;;;;;;4993019;28;20034;-85
2021/12/15 05:57:36;;;;;;;68.97;53.80;;;2.60;99.90;;;;;;4992562;28;20031;-80
2021/12/15 06:00:15;;;;;;;67.13;56.50;;;2.60;99.90;;;;;;5005589;28;20502;-85
2021/12/15 06:02:42;;;;;;;59.97;52.53;;;2.60;99.90;;;;;;4982926;28;20486;-84
2021/12/15 06:05:10;;;;;;;77.20;53.30;;;2.50;99.90;;;;;;5004147;28;20038;-85
2021/12/15 06:07:37;;;;;;;63.10;52.13;;;2.60;99.90;;;;;;4994912;28;20030;-83
2021/12/15 06:10:06;;;;;;;60.75;50.38;;;2.50;99.90;;;;;;4994650;28;20030;-84
2021/12/15 06:12:32;;;;;;;60.72;49.20;;;2.50;99.90;;;;;;4995071;28;20041;-79
2021/12/15 06:14:58;;;;;;;68.10;58.22;;;2.50;99.90;;;;;;4992724;28;20467;-84
2021/12/15 06:17:26;;;;;;;96.40;75.72;;;2.50;99.90;;;;;;4992502;28;20092;-85
2021/12/15 06:19:53;;;;;;;63.80;49.65;;;2.40;99.90;;;;;;4992550;28;20038;-84
2021/12/15 06:22:24;;;;;;;47.17;41.72;;;2.40;99.90;;;;;;4992720;28;20522;-85
2021/12/15 06:24:51;;;;;;;;;;;2.40;99.90;;;;;;4992616;28;20403;-84
2021/12/15 06:27:20;;;;;;;46.20;40.38;;;2.40;99.90;;;;;;4992736;28;20730;-84
2021/12/15 06:29:48;;;;;;;45.20;40.42;;;2.40;99.90;;;;;;4992957;28;20037;-83
2021/12/15 06:32:16;;;;;;;49.20;42.50;;;2.30;99.90;;;;;;4993633;28;20513;-86
2021/12/15 06:34:43;;;;;;;47.90;42.53;;;2.30;99.90;;;;;;4979906;28;20065;-85
2021/12/15 06:37:10;;;;;;;50.17;44.17;;;2.30;99.90;;;;;;5000064;28;20027;-86
2021/12/15 06:39:37;;;;;;;44.47;39.50;;;2.40;99.90;;;;;;5000749;28;20463;-85
2021/12/15 06:42:04;;;;;;;51.88;43.05;;;2.30;99.90;;;;;;4999712;28;20038;-86
2021/12/15 06:44:31;;;;;;;56.63;43.22;;;2.40;99.90;;;;;;4992519;28;20030;-86
2021/12/15 06:47:22;;;;;;;50.70;42.17;;;2.40;99.90;;;;;;4992267;28;20034;-86
2021/12/15 07:00:32;;;;;;;54.35;38.40;;;2.40;99.90;;;;;;4994327;28;20038;-87
2021/12/15 07:03:00;;;;;;;54.58;38.60;;;2.40;99.90;;;;;;4993128;28;20037;-86
2021/12/15 07:05:28;;;;;;;46.72;39.33;;;2.50;99.90;;;;;;4993840;28;20030;-87
2021/12/15 07:07:56;;;;;;;50.30;40.15;;;2.50;99.90;;;;;;4998404;28;20059;-87
2021/12/15 07:10:25;;;;;;;46.08;41.08;;;2.60;99.90;;;;;;5011457;28;20037;-86
2021/12/15 07:12:53;;;;;;;44.28;39.38;;;2.60;99.90;;;;;;5004140;28;20030;-87
2021/12/15 07:15:20;;;;;;;45.80;38.00;;;2.70;99.90;;;;;;5000464;28;20038;-88
2021/12/15 07:17:50;;;;;;;54.50;40.83;;;2.70;99.90;;;;;;5001287;28;20026;-87
2021/12/15 07:23:00;;;;;;;51.90;46.30;;;2.80;99.90;;;;;;4995671;28;20042;-87
2021/12/15 07:25:27;;;;;;;41.53;37.17;;;2.80;99.90;;;;;;5004049;28;20033;-86
2021/12/15 07:27:55;;;;;;;44.38;39.60;;;2.90;99.90;;;;;;4995115;28;20057;-85
2021/12/15 07:30:22;;;;;;;47.22;42.30;;;2.90;99.90;;;;;;5003629;28;20038;-85
2021/12/15 07:32:49;;;;;;;43.97;38.63;;;2.90;99.90;;;;;;4995111;28;20399;-87
2021/12/15 07:35:17;;;;;;;44.70;39.88;;;3.00;99.90;;;;;;4995657;28;20026;-85
2021/12/15 07:37:43;;;;;;;46.10;38.70;;;3.00;99.90;;;;;;4995617;28;20045;-85
2021/12/15 07:40:19;;;;;;;44.42;38.97;;;3.10;99.90;;;;;;4995543;28;20034;-86
2021/12/15 07:42:57;;;;;;;44.65;39.58;;;3.10;99.90;;;;;;4995649;28;20038;-86
2021/12/15 07:45:27;;;;;;;46.20;39.17;;;3.10;99.90;;;;;;4995656;28;20034;-86
2021/12/15 07:47:58;;;;;;;44.13;39.47;;;3.20;99.90;;;;;;4995252;28;20034;-85
2021/12/15 07:50:26;;;;;;;43.55;37.08;;;3.30;99.90;;;;;;4979422;28;20038;-88
2021/12/15 07:52:53;;;;;;;46.80;40.60;;;3.30;99.90;;;;;;4995293;28;20038;-89
2021/12/15 07:55:21;;;;;;;41.58;37.38;;;3.30;99.90;;;;;;4996103;28;20041;-89
2021/12/15 07:57:47;;;;;;;44.60;37.85;;;3.40;99.90;;;;;;4995591;28;20400;-88
2021/12/15 08:00:15;;;;;;;42.42;36.63;;;3.50;99.90;;;;;;5000306;28;20511;-89
2021/12/15 08:02:42;;;;;;;41.90;37.65;;;3.50;99.90;;;;;;5005384;28;20038;-88
2021/12/15 08:05:09;;;;;;;39.95;35.80;;;3.60;99.90;;;;;;4996791;28;20383;-89
2021/12/15 08:07:35;;;;;;;43.30;37.72;;;3.60;99.90;;;;;;4978716;28;20034;-86
2021/12/15 08:10:06;;;;;;;43.47;38.90;;;3.70;99.90;;;;;;4987200;28;20041;-91
2021/12/15 08:12:33;;;;;;;43.17;37.05;;;3.80;99.90;;;;;;4996553;28;20049;-91
2021/12/15 08:14:59;;;;;;;43.47;37.97;;;3.90;99.90;;;;;;4996369;28;20053;-91
2021/12/15 08:17:25;;;;;;;50.33;41.22;;;3.90;99.90;;;;;;4996732;28;20372;-92
2021/12/15 08:19:51;;;;;;;44.28;38.88;;;4.00;99.90;;;;;;5015707;28;20036;-92
2021/12/15 08:22:18;;;;;;;44.75;38.53;;;4.00;99.90;;;;;;4999810;28;20042;-90
2021/12/15 08:24:44;;;;;;;42.00;37.58;;;4.10;99.90;;;;;;4999764;28;20026;-91
2021/12/15 08:27:10;;;;;;;41.13;36.70;;;4.20;99.90;;;;;;4996694;28;20050;-90
2021/12/15 08:29:36;;;;;;;56.65;42.92;;;4.30;99.90;;;;;;4996945;28;20045;-90
2021/12/15 08:32:03;;;;;;;44.70;40.08;;;4.30;99.90;;;;;;4996547;28;20038;-90
2021/12/15 08:34:30;;;;;;;42.80;37.92;;;4.40;99.90;;;;;;4996715;28;20045;-91
2021/12/15 08:36:56;;;;;;;40.15;36.08;;;4.40;99.90;;;;;;4996270;28;20037;-90
2021/12/15 08:39:22;;;;;;;46.05;36.60;;;4.50;99.90;;;;;;4995859;28;20038;-90
2021/12/15 08:41:49;;;;;;;63.05;55.30;;;4.60;99.90;;;;;;4996034;28;20061;-91
2021/12/15 08:44:15;;;;;;;93.15;79.43;;;4.60;99.90;;;;;;4995718;28;20027;-90
2021/12/15 08:46:45;;;;;;;74.95;57.70;;;4.70;99.90;;;;;;4995521;28;20034;-90
2021/12/15 08:49:16;;;;;;;39.97;35.80;;;4.70;99.90;;;;;;4996319;28;20037;-87
2021/12/15 08:51:44;;;;;;;34.17;29.75;;;4.80;99.90;;;;;;4996656;28;20041;-91
2021/12/15 08:54:16;;;;;;;39.58;35.65;;;4.90;99.90;;;;;;4997577;28;20386;-92
2021/12/15 08:56:44;;;;;;;41.45;35.78;;;4.90;99.90;;;;;;5014585;28;20034;-89
2021/12/15 08:59:11;;;;;;;41.22;36.72;;;5.00;99.90;;;;;;4996645;28;20039;-90
2021/12/15 09:01:37;;;;;;;48.00;42.45;;;5.10;99.90;;;;;;4986505;28;20042;-90
2021/12/15 09:04:04;;;;;;;39.80;35.75;;;5.20;99.90;;;;;;4998136;28;20041;-90
2021/12/15 09:06:32;;;;;;;50.58;45.40;;;5.30;99.90;;;;;;5001603;28;20030;-89
2021/12/15 09:08:58;;;;;;;51.08;38.28;;;5.30;99.90;;;;;;5002777;28;20041;-90
2021/12/15 09:11:27;;;;;;;41.85;37.45;;;5.40;99.90;;;;;;5016558;28;20109;-90
2021/12/15 09:13:57;;;;;;;40.53;36.40;;;5.50;99.90;;;;;;5015001;28;20038;-89
2021/12/15 09:16:26;;;;;;;39.42;35.22;;;5.50;99.90;;;;;;5021303;28;20030;-90
2021/12/15 09:18:55;;;;;;;38.38;34.47;;;5.60;99.90;;;;;;5011096;28;20049;-85
2021/12/15 09:21:24;;;;;;;37.17;33.30;;;5.80;99.90;;;;;;5004438;28;20119;-89
2021/12/15 09:23:51;;;;;;;35.22;31.58;;;5.80;99.90;;;;;;4988090;28;20046;-90
2021/12/15 09:26:17;;;;;;;34.50;30.77;;;5.80;99.90;;;;;;4999302;28;20031;-90
2021/12/15 09:28:43;;;;;;;33.63;29.88;;;5.80;99.90;;;;;;4995472;28;20459;-89
2021/12/15 09:31:10;;;;;;;35.20;31.38;;;5.90;99.90;;;;;;4995511;28;20475;-89
2021/12/15 09:33:38;;;;;;;37.88;29.17;;;6.00;99.90;;;;;;4994779;28;20038;-88
2021/12/15 09:36:05;;;;;;;32.13;28.35;;;5.90;99.90;;;;;;4995288;28;20032;-89
2021/12/15 09:38:32;;;;;;;29.70;26.52;;;5.90;99.90;;;;;;4997765;28;20034;-89
2021/12/15 09:41:01;;;;;;;32.25;28.95;;;6.10;99.90;;;;;;4996968;28;20030;-88
2021/12/15 09:43:30;;;;;;;39.35;30.08;;;6.20;99.90;;;;;;4995439;28;20050;-89
2021/12/15 09:46:14;;;;;;;32.17;29.00;;;6.40;99.90;;;;;;4997416;28;20037;-85
2021/12/15 10:05:12;;;;;;;;;;;;;;;;;;;;;
2021/12/15 10:20:57;;;;;;;24.40;21.63;;;7.40;99.90;;;;;;4993739;28;20030;-89
2021/12/15 10:23:31;;;;;;;25.30;21.63;;;7.40;99.90;;;;;;4994199;28;20045;-89
2021/12/15 10:25:57;;;;;;;25.92;23.17;;;7.50;99.90;;;;;;4994878;28;20467;-90
2021/12/15 10:28:27;;;;;;;28.02;22.25;;;7.60;99.90;;;;;;4995966;28;20050;-90
2021/12/15 10:30:59;;;;;;;28.80;25.73;;;7.70;99.90;;;;;;4999998;28;20026;-89
2021/12/15 10:33:43;;;;;;;26.48;23.55;;;7.70;99.90;;;;;;4977662;28;20053;-90
2021/12/15 10:36:15;;;;;;;25.58;22.92;;;7.90;99.90;;;;;;4999746;28;20103;-89
2021/12/15 10:38:45;;;;;;;25.83;21.65;;;8.00;99.90;;;;;;5010232;28;20041;-88
2021/12/15 10:41:16;;;;;;;23.83;21.40;;;7.90;99.90;;;;;;5002258;28;20038;-89
2021/12/15 10:43:45;;;;;;;;;;;7.90;99.90;;;;;;5002231;28;20057;-87
2021/12/15 10:46:18;;;;;;;25.40;19.50;;;7.90;99.90;;;;;;4997573;28;19917;-88
2021/12/15 10:49:01;;;;;;;22.60;18.55;;;7.90;99.90;;;;;;4997079;28;20037;-88
2021/12/15 10:51:35;;;;;;;22.42;20.17;;;7.90;99.90;;;;;;4997205;28;20035;-88
2021/12/15 10:54:10;;;;;;;26.63;19.63;;;8.00;99.90;;;;;;4997706;28;20045;-88
2021/12/15 10:56:47;;;;;;;20.42;18.35;;;8.00;99.90;;;;;;4996775;28;20466;-87
2021/12/15 10:59:15;;;;;;;21.77;19.10;;;8.00;99.90;;;;;;4998811;28;20026;-88
2021/12/15 11:01:46;;;;;;;20.33;18.15;;;8.20;99.90;;;;;;4996307;28;20042;-84
2021/12/15 11:04:30;;;;;;;;;;;8.10;99.90;;;;;;4997754;28;20034;-86
2021/12/15 11:07:25;;;;;;;21.88;19.55;;;8.10;99.90;;;;;;4996127;28;19917;-87
2021/12/15 11:09:59;;;;;;;63.63;52.72;;;8.10;99.90;;;;;;4991172;28;20502;-88
2021/12/15 11:12:35;;;;;;;36.92;29.67;;;8.20;99.90;;;;;;4980882;28;20042;-89
2021/12/15 11:15:07;;;;;;;28.90;21.58;;;8.30;99.90;;;;;;4996780;28;20038;-88
2021/12/15 11:17:41;;;;;;;23.55;19.27;;;8.30;99.90;;;;;;4996170;28;20035;-87
2021/12/15 11:20:12;;;;;;;36.60;29.63;;;8.30;99.90;;;;;;4978837;28;20030;-88
2021/12/15 11:22:44;;;;;;;30.13;25.15;;;8.20;99.90;;;;;;4995832;28;20034;-87
2021/12/15 11:25:22;;;;;;;19.52;17.50;;;8.20;99.90;;;;;;4995707;28;20037;-88
2021/12/15 11:27:54;;;;;;;20.17;18.08;;;8.30;99.90;;;;;;4996048;28;20063;-87
2021/12/15 11:30:33;;;;;;;16.92;15.10;;;8.30;99.90;;;;;;4995666;28;20030;-87
2021/12/15 11:33:10;;;;;;;19.17;15.20;;;8.30;99.90;;;;;;4996382;28;20033;-88
2021/12/15 11:35:43;;;;;;;15.38;13.88;;;8.40;99.90;;;;;;5005040;28;20129;-83
2021/12/15 11:38:21;;;;;;;17.67;16.00;;;8.30;99.90;;;;;;4996297;28;20026;-88
2021/12/15 11:40:56;;;;;;;18.40;15.02;;;8.40;99.90;;;;;;5003339;28;20038;-87
2021/12/15 11:43:34;;;;;;;21.02;17.52;;;8.50;99.90;;;;;;4998819;28;20041;-88
2021/12/15 11:46:02;;;;;;;16.15;14.48;;;8.70;99.90;;;;;;4996076;28;20026;-88
2021/12/15 11:48:33;;;;;;;16.42;14.07;;;8.70;99.90;;;;;;5000192;28;20033;-87
2021/12/15 11:51:04;;;;;;;19.60;13.95;;;8.70;99.90;;;;;;4997750;28;20030;-87
2021/12/15 11:53:33;;;;;;;12.90;10.20;;;8.90;99.50;;;;;;4995269;28;20044;-88
2021/12/15 11:56:20;;;;;;;9.88;8.77;;;8.80;97.30;;;;;;4995113;28;20088;-87
2021/12/15 11:58:49;;;;;;;12.40;10.98;;;8.60;97.50;;;;;;4995034;28;20371;-86
2021/12/15 12:01:40;;;;;;;14.40;11.80;;;8.50;97.00;;;;;;4977671;28;20034;-87
2021/12/15 12:04:14;;;;;;;12.35;11.02;;;8.50;97.60;;;;;;4995402;28;20049;-87
2021/12/15 12:06:41;;;;;;;11.60;10.43;;;8.60;97.50;;;;;;4994689;28;20395;-85
2021/12/15 12:09:08;;;;;;;10.40;9.50;;;8.60;96.70;;;;;;4995528;28;20095;-87
2021/12/15 12:11:40;;;;;;;6.55;5.95;;;8.50;96.60;;;;;;4977247;28;20038;-85
2021/12/15 12:14:16;;;;;;;16.33;14.68;;;8.40;95.40;;;;;;4994982;28;20031;-87
2021/12/15 12:16:44;;;;;;;13.77;10.05;;;8.50;96.60;;;;;;4994970;28;20038;-86
2021/12/15 12:19:13;;;;;;;9.20;8.27;;;8.70;96.60;;;;;;4994014;28;20043;-87
2021/12/15 12:21:40;;;;;;;10.98;9.13;;;8.70;96.10;;;;;;4994353;28;20038;-86
2021/12/15 12:24:07;;;;;;;10.80;8.45;;;8.80;95.90;;;;;;4995369;28;20034;-86
2021/12/15 12:26:35;;;;;;;8.73;7.82;;;8.90;95.20;;;;;;5014487;28;20042;-88
2021/12/15 12:29:02;;;;;;;8.50;7.30;;;9.00;94.20;;;;;;4997640;28;20359;-86
2021/12/15 12:31:28;;;;;;;8.88;7.57;;;8.80;93.90;;;;;;4994564;28;20026;-87
2021/12/15 12:33:55;;;;;;;9.10;8.20;;;8.80;93.90;;;;;;4995987;28;20034;-86
2021/12/15 12:36:28;;;;;;;10.32;8.93;;;8.70;94.10;;;;;;4994587;28;20045;-87
2021/12/15 12:38:59;;;;;;;10.68;9.55;;;8.70;94.20;;;;;;4993290;28;20033;-87
2021/12/15 12:41:36;;;;;;;9.95;8.68;;;8.80;94.60;;;;;;4995200;28;20034;-88
2021/12/15 12:44:05;;;;;;;12.52;9.40;;;8.80;94.20;;;;;;4976761;28;20065;-87
2021/12/15 12:46:50;;;;;;;12.10;10.85;;;8.80;94.70;;;;;;4976890;28;20399;-88
2021/12/15 13:00:36;;;;;;;;;;;9.00;93.70;;;;;;5013531;28;20030;-87
2021/12/15 13:03:11;;;;;;;7.43;6.68;;;9.10;92.50;;;;;;4975980;28;19922;-87
2021/12/15 13:05:51;;;;;;;7.95;7.22;;;9.00;92.80;;;;;;4994467;28;20383;-87
2021/12/15 13:08:41;;;;;;;12.30;8.18;;;9.00;92.50;;;;;;4994485;28;20033;-87
2021/12/15 13:11:14;;;;;;;9.73;8.73;;;8.90;92.30;;;;;;4994179;28;20030;-87
2021/12/15 13:14:08;;;;;;;9.55;8.57;;;8.90;92.80;;;;;;4993906;28;20050;-86
2021/12/15 13:16:52;;;;;;;47.63;32.10;;;8.80;92.80;;;;;;4993910;28;20042;-87
2021/12/15 13:19:25;;;;;;;115.13;82.15;;;9.00;92.90;;;;;;4995039;28;20026;-87
2021/12/15 13:22:04;;;;;;;15.30;13.23;;;9.10;92.80;;;;;;4998140;28;20034;-87
2021/12/15 13:30:54;;;;;;;113.07;86.85;;;8.80;92.40;;;;;;4976308;28;20038;-88
2021/12/15 13:33:28;;;;;;;263.20;214.15;;;8.80;92.70;;;;;;4986766;28;20120;-86
2021/12/15 13:36:07;;;;;;;45.95;36.58;;;8.80;92.70;;;;;;4993363;28;20058;-85
2021/12/15 13:38:36;;;;;;;26.48;20.30;;;8.80;92.40;;;;;;4994229;28;20030;-89
2021/12/15 13:41:10;;;;;;;17.77;15.07;;;8.80;92.50;;;;;;4978161;28;20095;-89
2021/12/15 13:43:44;;;;;;;19.55;14.90;;;8.80;92.70;;;;;;4993994;28;20045;-88
2021/12/15 13:46:31;;;;;;;26.92;24.02;;;8.80;92.30;;;;;;4986987;28;20372;-87
2021/12/15 13:49:28;;;;;;;31.27;24.95;;;8.80;92.60;;;;;;4993572;28;20483;-87
2021/12/15 13:52:06;;;;;;;14.50;13.05;;;8.80;92.70;;;;;;4988363;28;20057;-87
2021/12/15 13:54:32;;;;;;;23.05;18.85;;;8.80;92.80;;;;;;4997054;28;20037;-87
2021/12/15 13:57:02;;;;;;;24.02;16.42;;;8.80;92.80;;;;;;5019548;28;20211;-87
2021/12/15 13:59:35;;;;;;;25.50;19.00;;;8.90;92.90;;;;;;5007175;28;20038;-86
2021/12/15 14:02:20;;;;;;;20.48;16.73;;;8.90;92.70;;;;;;5002086;28;20034;-86
2021/12/15 14:04:50;;;;;;;17.02;13.50;;;8.80;92.50;;;;;;4993067;28;20060;-86
2021/12/15 14:07:50;;;;;;;19.27;17.00;;;8.80;92.60;;;;;;4993659;28;20075;-87
2021/12/15 14:10:18;;;;;;;23.50;16.58;;;8.70;93.00;;;;;;4983041;28;20484;-87
2021/12/15 14:12:47;;;;;;;14.98;13.38;;;8.70;93.40;;;;;;4992295;28;20066;-88
2021/12/15 14:15:27;;;;;;;15.60;13.80;;;8.80;93.10;;;;;;4985893;28;20120;-88
2021/12/15 14:18:18;;;;;;;15.30;13.25;;;8.80;92.90;;;;;;5010758;28;20037;-87
2021/12/15 14:20:52;;;;;;;16.98;15.23;;;8.70;92.90;;;;;;4999040;28;20038;-86
2021/12/15 14:23:24;;;;;;;19.50;15.05;;;8.60;93.20;;;;;;4999153;28;20042;-88
2021/12/15 14:25:51;;;;;;;22.67;15.48;;;8.60;93.50;;;;;;4982413;28;20037;-88
2021/12/15 14:28:19;;;;;;;18.35;13.85;;;8.60;93.40;;;;;;4999189;28;20046;-88
2021/12/15 14:30:58;;;;;;;18.23;16.42;;;8.60;93.80;;;;;;4997543;28;20038;-84
2021/12/15 14:33:29;;;;;;;19.02;15.70;;;8.60;94.20;;;;;;4998288;28;20042;-88
2021/12/15 14:36:04;;;;;;;21.85;16.92;;;8.60;94.20;;;;;;5002706;28;20387;-88
2021/12/15 14:38:52;;;;;;;17.42;15.60;;;8.60;94.20;;;;;;5001798;28;20038;-84